Time;durP1;ratioP1;P1;durP2;ratioP2;P2;SDS_P1;SDS_P2;PMS_P1;PMS_P2;Temp;Humidity;BMP_temperature;BMP_pressure;BME280_temperature;BME280_humidity;BME280_pressure;Samples;Min_cycle;Max_cycle;Signal;HPM_P1;HPM_P2
2021/12/18 00:01:46;;;;;;;0.20;0.20;;;;;;;23.83;15.88;100995.78;5113981;28;20353;-67
2021/12/18 00:04:11;;;;;;;0.20;0.20;;;;;;;23.84;15.83;101004.81;5114154;28;20031;-67
2021/12/18 00:06:37;;;;;;;0.20;0.20;;;;;;;23.81;16.04;101006.97;5114299;28;20023;-69
2021/12/18 00:09:02;;;;;;;0.25;0.25;;;;;;;23.83;16.05;101003.16;5113767;28;20485;-68
2021/12/18 00:11:28;;;;;;;0.20;0.20;;;;;;;23.81;15.77;101003.44;5114137;28;20108;-68
2021/12/18 00:13:53;;;;;;;0.30;0.30;;;;;;;23.80;15.82;100997.13;5113990;28;20026;-69
2021/12/18 00:16:18;;;;;;;0.40;0.40;;;;;;;23.81;15.96;100993.31;5112919;28;20042;-68
2021/12/18 00:18:46;;;;;;;0.30;0.30;;;;;;;23.80;16.03;100993.53;5114061;28;20020;-69
2021/12/18 00:21:14;;;;;;;0.20;0.20;;;;;;;23.78;15.90;100982.91;5113760;28;20047;-69
2021/12/18 00:23:40;;;;;;;0.10;0.10;;;;;;;23.79;15.97;100995.47;5114036;28;20039;-68
2021/12/18 00:26:06;;;;;;;0.20;0.20;;;;;;;23.78;15.84;100999.28;5116514;28;20027;-69
2021/12/18 00:28:31;;;;;;;0.20;0.20;;;;;;;23.78;15.79;100993.84;5118185;28;20453;-69
2021/12/18 00:30:56;;;;;;;0.20;0.20;;;;;;;23.78;15.91;100988.38;5126926;27;20019;-68
2021/12/18 00:33:22;;;;;;;0.20;0.20;;;;;;;23.78;15.93;100985.66;5137127;27;20023;-69
2021/12/18 00:35:47;;;;;;;0.20;0.20;;;;;;;23.79;15.79;100983.72;5138979;27;20034;-68
2021/12/18 00:38:13;;;;;;;0.22;0.22;;;;;;;23.77;15.93;100964.88;5137543;27;20019;-68
2021/12/18 00:40:59;;;;;;;0.20;0.20;;;;;;;23.76;15.78;100962.41;5138808;27;20031;-69
2021/12/18 00:43:32;;;;;;;0.30;0.30;;;;;;;23.77;15.62;100947.69;5138639;27;20019;-67
2021/12/18 00:45:57;;;;;;;0.30;0.30;;;;;;;23.75;15.87;100944.38;5138652;27;20069;-67
2021/12/18 00:48:23;;;;;;;0.20;0.20;;;;;;;23.74;16.10;100927.19;5138461;27;20463;-67
2021/12/18 00:50:48;;;;;;;0.20;0.20;;;;;;;23.74;16.05;100926.38;5138435;27;20039;-67
2021/12/18 00:53:14;;;;;;;0.20;0.20;;;;;;;23.74;15.75;100938.13;5138423;27;20464;-69
2021/12/18 00:55:39;;;;;;;0.15;0.15;;;;;;;23.76;16.01;100921.47;5138521;27;20015;-68
2021/12/18 00:58:05;;;;;;;0.20;0.20;;;;;;;23.73;16.07;100925.56;5138197;27;20023;-67
2021/12/18 01:00:30;;;;;;;0.20;0.20;;;;;;;23.72;16.14;100921.19;5138428;27;20023;-69
2021/12/18 01:02:58;;;;;;;0.25;0.22;;;;;;;23.72;15.83;100904.81;5138391;27;20080;-68
2021/12/18 01:05:24;;;;;;;0.20;0.20;;;;;;;23.72;15.98;100907.53;5138575;27;20041;-68
2021/12/18 01:07:50;;;;;;;0.20;0.20;;;;;;;23.72;15.77;100906.72;5137674;27;20033;-68
2021/12/18 01:10:36;;;;;;;0.22;0.22;;;;;;;23.72;15.87;100891.19;5137442;27;20043;-68
2021/12/18 01:13:03;;;;;;;0.30;0.30;;;;;;;23.71;15.85;100892.25;5137944;27;20031;-68
2021/12/18 01:15:32;;;;;;;0.20;0.20;;;;;;;23.71;15.79;100884.06;5136765;27;20204;-69
2021/12/18 01:23:28;;;;;;;0.20;0.20;;;;;;;23.70;16.12;100848.84;5115188;28;20063;-68
2021/12/18 01:25:53;;;;;;;0.30;0.30;;;;;;;23.68;16.04;100868.25;5114791;28;20035;-68
2021/12/18 01:28:19;;;;;;;0.20;0.20;;;;;;;23.70;15.77;100868.78;5097818;28;20039;-68
2021/12/18 01:30:44;;;;;;;0.20;0.20;;;;;;;23.68;16.17;100857.31;5107921;28;20060;-68
2021/12/18 01:33:10;;;;;;;0.20;0.20;;;;;;;23.69;15.93;100852.69;5077285;28;20039;-69
2021/12/18 01:35:35;;;;;;;0.10;0.10;;;;;;;23.68;16.17;100851.03;5094635;28;20035;-69
2021/12/18 01:38:01;;;;;;;0.28;0.28;;;;;;;23.66;16.01;100829.47;5093352;28;20032;-69
2021/12/18 01:40:27;;;;;;;0.20;0.20;;;;;;;23.66;16.00;100824.00;5094133;28;20074;-69
2021/12/18 01:53:33;;;;;;;0.15;0.15;;;;;;;23.63;16.26;100806.25;5094042;28;20417;-69
2021/12/18 01:55:58;;;;;;;0.10;0.10;;;;;;;23.62;16.06;100799.16;5094071;28;20036;-68
2021/12/18 01:58:25;;;;;;;0.20;0.20;;;;;;;23.63;16.35;100800.00;5093666;28;20024;-69
2021/12/18 02:00:52;;;;;;;0.20;0.20;;;;;;;23.61;16.25;100797.53;5107741;28;20607;-68
2021/12/18 02:03:17;;;;;;;0.17;0.17;;;;;;;23.62;16.08;100795.63;5116090;28;20480;-68
2021/12/18 02:05:42;;;;;;;0.20;0.20;;;;;;;23.61;16.32;100796.69;5116492;28;20016;-69
2021/12/18 02:08:08;;;;;;;0.20;0.20;;;;;;;23.61;16.27;100785.78;5115971;28;20484;-69
2021/12/18 02:10:44;;;;;;;0.17;0.17;;;;;;;23.61;16.37;100774.88;5115065;28;20428;-69
2021/12/18 02:13:24;;;;;;;0.30;0.30;;;;;;;23.61;16.19;100763.94;5116242;28;20028;-69
2021/12/18 02:21:20;;;;;;;0.22;0.22;;;;;;;23.59;16.22;100747.03;5116090;28;20085;-69
2021/12/18 02:23:46;;;;;;;0.28;0.20;;;;;;;23.59;16.22;100733.41;5115032;28;20030;-69
2021/12/18 02:26:12;;;;;;;0.20;0.20;;;;;;;23.59;16.30;100745.16;5116438;28;20369;-69
2021/12/18 02:28:37;;;;;;;0.20;0.20;;;;;;;23.59;16.54;100747.03;5115685;28;20028;-69
2021/12/18 02:31:03;;;;;;;0.25;0.25;;;;;;;23.59;16.53;100744.31;5124886;27;20034;-68
2021/12/18 02:33:29;;;;;;;0.20;0.20;;;;;;;23.58;16.43;100739.94;5136447;27;20465;-68
2021/12/18 02:35:56;;;;;;;0.20;0.20;;;;;;;23.57;16.44;100746.47;5136860;27;20037;-69
2021/12/18 02:38:27;;;;;;;0.30;0.30;;;;;;;23.56;16.56;100740.22;5136356;27;20031;-68
2021/12/18 02:43:39;;;;;;;0.20;0.20;;;;;;;23.62;16.42;100730.13;5135863;27;20027;-68
2021/12/18 02:46:08;;;;;;;0.30;0.30;;;;;;;23.56;16.73;100712.94;5136101;27;20381;-68
2021/12/18 02:48:35;;;;;;;0.30;0.30;;;;;;;23.55;16.57;100705.00;5135115;27;20034;-68
2021/12/18 02:51:01;;;;;;;0.20;0.20;;;;;;;23.54;16.51;100706.09;5135618;27;20384;-69
2021/12/18 02:53:26;;;;;;;0.28;0.28;;;;;;;23.53;16.65;100705.28;5135598;27;20045;-69
2021/12/18 02:55:57;;;;;;;0.25;0.25;;;;;;;23.53;16.52;100693.56;5135900;27;20023;-69
2021/12/18 02:58:22;;;;;;;0.20;0.20;;;;;;;23.54;16.62;100692.44;5135886;27;20023;-69
2021/12/18 03:00:48;;;;;;;0.30;0.30;;;;;;;23.53;16.63;100688.09;5135577;27;20031;-69
2021/12/18 03:03:15;;;;;;;0.20;0.20;;;;;;;23.53;16.87;100683.47;5135773;27;20023;-69
2021/12/18 03:05:49;;;;;;;0.20;0.20;;;;;;;23.50;16.74;100678.53;5135889;27;20095;-69
2021/12/18 03:08:22;;;;;;;0.22;0.22;;;;;;;23.52;16.87;100681.00;5135279;27;20076;-69
2021/12/18 03:25:16;;;;;;;0.20;0.20;;;;;;;23.50;17.09;100621.25;5092510;28;20040;-68
2021/12/18 03:27:29;;;;;;;0.22;0.22;;;;;;;23.52;17.02;100645.53;5088051;28;20124;-67
2021/12/18 03:29:55;;;;;;;0.10;0.10;;;;;;;23.54;16.78;100648.81;5091976;28;20052;-67
2021/12/18 03:32:20;;;;;;;0.22;0.22;;;;;;;23.51;17.01;100646.59;5072975;28;20359;-67
2021/12/18 03:34:46;;;;;;;0.20;0.20;;;;;;;23.51;17.08;100649.34;5071593;28;20102;-67
2021/12/18 03:37:11;;;;;;;0.20;0.20;;;;;;;23.51;16.95;100646.59;5072313;28;20036;-67
2021/12/18 03:39:37;;;;;;;0.20;0.20;;;;;;;23.52;17.07;100642.81;5071537;28;20123;-67
2021/12/18 03:42:04;;;;;;;0.20;0.20;;;;;;;23.49;17.19;100646.06;5071420;28;20055;-67
2021/12/18 03:44:30;;;;;;;0.20;0.20;;;;;;;23.48;17.23;100633.53;5071529;28;20021;-69
2021/12/18 03:46:55;;;;;;;0.22;0.22;;;;;;;23.49;17.21;100616.06;5071447;28;20029;-69
2021/12/18 03:49:21;;;;;;;0.30;0.30;;;;;;;23.49;17.23;100614.16;5071422;28;20478;-68
2021/12/18 03:51:46;;;;;;;0.20;0.20;;;;;;;23.48;17.18;100598.06;5071485;28;20024;-68
2021/12/18 03:54:12;;;;;;;0.20;0.20;;;;;;;23.49;17.23;100591.50;5071903;28;20371;-68
2021/12/18 03:56:37;;;;;;;0.38;0.38;;;;;;;23.49;17.32;100586.06;5104707;28;20069;-68
2021/12/18 03:59:03;;;;;;;0.22;0.22;;;;;;;23.48;17.26;100585.25;5113952;28;20027;-68
2021/12/18 04:01:28;;;;;;;0.20;0.20;;;;;;;23.48;17.23;100582.50;5113576;28;20024;-69
2021/12/18 04:03:53;;;;;;;0.20;0.20;;;;;;;23.48;17.44;100581.72;5114256;28;20028;-69
2021/12/18 04:06:19;;;;;;;0.20;0.20;;;;;;;23.47;17.25;100582.78;5114218;28;20098;-68
2021/12/18 04:08:44;;;;;;;0.10;0.10;;;;;;;23.46;17.23;100571.06;5113988;28;20112;-68
2021/12/18 04:11:11;;;;;;;0.20;0.20;;;;;;;23.46;17.29;100571.06;5113781;28;20093;-68
2021/12/18 04:13:36;;;;;;;0.20;0.20;;;;;;;23.47;17.57;100547.31;5114361;28;20062;-69
2021/12/18 04:16:02;;;;;;;0.20;0.20;;;;;;;23.46;17.32;100518.41;5113925;28;20474;-67
2021/12/18 04:18:28;;;;;;;0.13;0.13;;;;;;;23.45;17.49;100517.59;5114681;28;20107;-69
2021/12/18 04:20:53;;;;;;;0.30;0.30;;;;;;;23.43;17.58;100501.50;5114167;28;20032;-68
2021/12/18 04:23:18;;;;;;;0.20;0.20;;;;;;;23.46;17.44;100502.03;5113827;28;20032;-68
2021/12/18 04:25:44;;;;;;;0.20;0.20;;;;;;;23.45;17.46;100493.03;5113800;28;20019;-68
2021/12/18 04:28:09;;;;;;;0.13;0.13;;;;;;;23.44;17.63;100485.97;5113907;28;20031;-68
2021/12/18 04:30:35;;;;;;;0.20;0.20;;;;;;;23.43;17.59;100490.59;5117275;28;20046;-68
2021/12/18 04:33:00;;;;;;;0.20;0.20;;;;;;;23.44;17.62;100491.44;5134673;27;20027;-69
2021/12/18 04:35:27;;;;;;;0.10;0.10;;;;;;;23.42;17.51;100488.97;5134189;28;20380;-69
2021/12/18 04:37:53;;;;;;;0.20;0.20;;;;;;;23.41;17.73;100481.88;5134857;27;20019;-69
2021/12/18 04:40:18;;;;;;;0.10;0.10;;;;;;;23.42;17.72;100483.50;5134188;28;20418;-69
2021/12/18 04:42:43;;;;;;;0.10;0.10;;;;;;;23.42;17.83;100475.34;5134417;28;20026;-69
2021/12/18 04:45:09;;;;;;;0.20;0.20;;;;;;;23.42;17.73;100461.69;5134352;27;20376;-68
2021/12/18 04:47:34;;;;;;;0.20;0.20;;;;;;;23.43;17.80;100463.31;5134591;27;20034;-68
2021/12/18 04:50:00;;;;;;;0.10;0.10;;;;;;;23.41;17.81;100448.31;5134127;28;20031;-68
2021/12/18 04:52:25;;;;;;;0.10;0.10;;;;;;;23.41;17.90;100448.31;5134063;28;20108;-68
2021/12/18 04:54:51;;;;;;;0.20;0.20;;;;;;;23.41;17.78;100454.59;5132824;28;20080;-68
2021/12/18 04:57:16;;;;;;;0.15;0.15;;;;;;;23.41;17.93;100443.69;5134221;28;20160;-68
2021/12/18 04:59:44;;;;;;;0.15;0.15;;;;;;;23.39;17.72;100440.41;5132731;28;20389;-68
2021/12/18 05:02:15;;;;;;;0.20;0.20;;;;;;;23.39;17.75;100448.59;5134438;27;20023;-69
2021/12/18 05:04:41;;;;;;;0.15;0.15;;;;;;;23.39;17.93;100437.69;5134948;27;20027;-68
2021/12/18 05:07:06;;;;;;;0.20;0.20;;;;;;;23.38;18.02;100433.31;5132953;28;20358;-68
2021/12/18 05:09:32;;;;;;;0.20;0.20;;;;;;;23.38;18.11;100438.75;5133715;28;20477;-67
2021/12/18 05:11:57;;;;;;;0.20;0.20;;;;;;;23.38;17.84;100444.22;5134183;27;20474;-67
2021/12/18 05:14:23;;;;;;;0.10;0.10;;;;;;;23.40;17.80;100452.97;5138047;27;20030;-69
2021/12/18 05:16:48;;;;;;;0.20;0.20;;;;;;;23.39;17.87;100448.59;5137920;27;20026;-68
2021/12/18 05:19:14;;;;;;;0.10;0.10;;;;;;;23.39;18.05;100445.88;5137752;27;20469;-69
2021/12/18 05:21:39;;;;;;;0.20;0.20;;;;;;;23.38;18.12;100437.97;5137528;27;20483;-69
2021/12/18 05:24:05;;;;;;;0.20;0.20;;;;;;;23.38;17.94;100448.88;5137820;27;20081;-69
2021/12/18 05:26:31;;;;;;;0.38;0.38;;;;;;;23.38;18.13;100457.84;5137645;27;20066;-69
2021/12/18 05:28:56;;;;;;;0.20;0.20;;;;;;;23.37;18.19;100452.66;5137860;27;20027;-68
2021/12/18 05:31:22;;;;;;;0.10;0.10;;;;;;;23.38;18.17;100449.69;5126373;27;20031;-68
2021/12/18 05:33:49;;;;;;;0.20;0.20;;;;;;;23.37;18.26;100458.97;5115811;28;20020;-68
2021/12/18 05:39:00;;;;;;;0.20;0.20;;;;;;;23.37;18.05;100458.13;5116777;28;20085;-69
2021/12/18 05:41:26;;;;;;;0.10;0.10;;;;;;;23.35;18.16;100455.69;5116812;28;20032;-69
2021/12/18 05:43:51;;;;;;;0.20;0.20;;;;;;;23.36;18.19;100454.59;5116934;28;20381;-69
2021/12/18 05:46:16;;;;;;;0.13;0.13;;;;;;;23.36;18.40;100451.84;5116605;28;20076;-69
2021/12/18 05:48:42;;;;;;;0.20;0.20;;;;;;;23.37;18.18;100447.22;5116917;28;20476;-68
2021/12/18 05:51:07;;;;;;;0.22;0.22;;;;;;;23.35;18.20;100439.34;5116737;28;20034;-69
2021/12/18 05:53:33;;;;;;;0.20;0.20;;;;;;;23.36;18.12;100438.22;5116411;28;20428;-69
2021/12/18 05:55:58;;;;;;;0.40;0.20;;;;;;;23.36;18.49;100435.50;5116807;28;20062;-68
2021/12/18 05:58:23;;;;;;;0.20;0.20;;;;;;;23.35;18.28;100431.16;5116278;28;20019;-68
2021/12/18 06:00:49;;;;;;;0.20;0.20;;;;;;;23.34;18.28;100426.78;5116480;28;20031;-69
2021/12/18 06:03:14;;;;;;;0.22;0.20;;;;;;;23.34;18.36;100418.59;5116492;28;20020;-68
2021/12/18 06:05:40;;;;;;;0.20;0.20;;;;;;;23.34;18.35;100418.59;5116358;28;20488;-69
2021/12/18 06:08:10;;;;;;;0.10;0.10;;;;;;;23.35;18.40;100416.69;5116331;28;20031;-68
2021/12/18 06:10:37;;;;;;;0.20;0.20;;;;;;;23.34;18.41;100410.41;5115917;28;20434;-68
2021/12/18 06:13:03;;;;;;;0.20;0.20;;;;;;;23.33;18.42;100406.03;5114985;28;20023;-69
2021/12/18 06:15:29;;;;;;;0.28;0.28;;;;;;;23.32;18.52;100398.97;5116180;28;20027;-68
2021/12/18 06:17:55;;;;;;;0.20;0.20;;;;;;;23.32;18.39;100398.13;5115841;28;20024;-69
2021/12/18 06:20:21;;;;;;;0.22;0.22;;;;;;;23.32;18.63;100395.41;5116035;28;20035;-69
2021/12/18 06:22:46;;;;;;;0.20;0.20;;;;;;;23.31;18.66;100394.59;5115811;28;20032;-69
2021/12/18 06:25:12;;;;;;;0.20;0.20;;;;;;;23.32;18.47;100385.34;5115573;28;20028;-69
2021/12/18 06:27:37;;;;;;;0.20;0.20;;;;;;;23.30;18.54;100381.22;5115923;28;20027;-68
2021/12/18 06:30:03;;;;;;;0.22;0.22;;;;;;;23.33;18.70;100391.59;5115836;28;20354;-68
2021/12/18 06:32:29;;;;;;;0.20;0.20;;;;;;;23.32;18.68;100388.06;5134056;27;20027;-68
2021/12/18 06:34:54;;;;;;;0.20;0.20;;;;;;;23.32;18.66;100379.88;5136393;27;20023;-69
2021/12/18 06:37:19;;;;;;;0.20;0.20;;;;;;;23.31;18.56;100380.97;5135921;27;20027;-69
2021/12/18 06:39:45;;;;;;;0.20;0.20;;;;;;;23.31;18.67;100372.78;5136158;27;20035;-69
2021/12/18 06:42:10;;;;;;;0.20;0.20;;;;;;;23.30;18.93;100364.88;5136486;27;20019;-68
2021/12/18 06:44:36;;;;;;;0.15;0.15;;;;;;;23.32;18.77;100366.25;5135925;27;20533;-68
2021/12/18 06:47:01;;;;;;;0.20;0.20;;;;;;;23.32;18.69;100359.97;5136196;27;20127;-70
2021/12/18 06:49:26;;;;;;;0.20;0.20;;;;;;;23.31;18.95;100355.63;5136015;27;20478;-69
2021/12/18 06:51:52;;;;;;;0.20;0.20;;;;;;;23.29;18.73;100358.59;5138231;27;20031;-69
2021/12/18 06:54:17;;;;;;;0.20;0.20;;;;;;;23.28;18.88;100356.97;5140730;27;20027;-69
2021/12/18 06:56:43;;;;;;;0.10;0.10;;;;;;;23.29;19.11;100344.97;5141418;27;20377;-68
2021/12/18 06:59:08;;;;;;;0.20;0.20;;;;;;;23.30;18.80;100343.06;5136267;27;20027;-69
2021/12/18 07:01:33;;;;;;;0.20;0.20;;;;;;;23.30;18.87;100337.59;5135909;27;20015;-69
2021/12/18 07:03:59;;;;;;;0.20;0.20;;;;;;;23.28;19.05;100346.06;5134458;27;20469;-69
2021/12/18 07:06:24;;;;;;;0.10;0.10;;;;;;;23.31;18.87;100350.97;5136103;27;20350;-69
2021/12/18 07:08:50;;;;;;;0.10;0.10;;;;;;;23.29;18.88;100347.69;5135398;27;20058;-69
2021/12/18 07:11:15;;;;;;;0.15;0.15;;;;;;;23.29;19.05;100341.44;5135379;27;20426;-69
2021/12/18 07:13:41;;;;;;;0.17;0.17;;;;;;;23.29;18.90;100333.25;5135579;27;20024;-69
2021/12/18 07:16:06;;;;;;;0.20;0.20;;;;;;;23.29;19.00;100331.34;5135250;27;20023;-69
2021/12/18 07:18:31;;;;;;;0.20;0.20;;;;;;;23.29;18.96;100336.78;5135442;27;20027;-69
2021/12/18 07:20:58;;;;;;;0.13;0.13;;;;;;;23.27;19.16;100338.16;5134267;27;20380;-68
2021/12/18 07:23:24;;;;;;;0.20;0.20;;;;;;;23.29;19.05;100336.00;5135559;27;20070;-69
2021/12/18 07:25:50;;;;;;;0.40;0.30;;;;;;;23.27;19.14;100327.25;5135399;27;20470;-69
2021/12/18 07:28:16;;;;;;;0.30;0.30;;;;;;;23.26;19.10;100326.44;5135317;27;20023;-69
2021/12/18 07:30:41;;;;;;;0.20;0.20;;;;;;;23.26;19.08;100331.88;5132833;27;20505;-69
2021/12/18 07:33:10;;;;;;;0.20;0.20;;;;;;;23.27;19.17;100327.25;5114744;28;20024;-69
2021/12/18 07:35:39;;;;;;;0.30;0.30;;;;;;;23.25;19.35;100335.72;5114170;28;20035;-69
2021/12/18 07:38:05;;;;;;;0.20;0.20;;;;;;;23.25;19.16;100333.00;5114728;28;20031;-69
2021/12/18 07:40:30;;;;;;;0.20;0.20;;;;;;;23.27;19.22;100328.06;5114965;28;20492;-68
2021/12/18 07:42:56;;;;;;;0.20;0.20;;;;;;;23.26;19.24;100326.44;5114876;28;20024;-69
2021/12/18 07:45:21;;;;;;;0.20;0.20;;;;;;;23.25;19.18;100313.91;5114592;28;20470;-69
2021/12/18 07:47:47;;;;;;;0.20;0.20;;;;;;;23.25;19.32;100313.91;5114590;28;20020;-69
2021/12/18 07:50:18;;;;;;;0.20;0.20;;;;;;;23.25;19.26;100303.00;5114112;28;20504;-69
2021/12/18 07:52:47;;;;;;;0.10;0.10;;;;;;;23.25;19.25;100292.09;5114166;28;20026;-68
2021/12/18 07:55:12;;;;;;;0.15;0.15;;;;;;;23.25;19.30;100297.56;5114509;28;20475;-69
2021/12/18 07:57:38;;;;;;;0.15;0.15;;;;;;;23.25;19.21;100292.09;5114384;28;20023;-69
2021/12/18 08:00:07;;;;;;;0.10;0.10;;;;;;;23.24;19.23;100295.91;5112788;28;20470;-69
2021/12/18 08:02:33;;;;;;;0.13;0.13;;;;;;;23.24;19.43;100295.91;5114440;28;20023;-68
2021/12/18 08:04:58;;;;;;;0.20;0.20;;;;;;;23.28;19.40;100296.97;5113934;28;20366;-68
2021/12/18 08:07:25;;;;;;;0.13;0.13;;;;;;;23.27;19.39;100298.09;5114200;28;20084;-68
2021/12/18 08:09:50;;;;;;;0.20;0.20;;;;;;;23.28;19.28;100296.97;5112334;28;20040;-68
2021/12/18 08:12:15;;;;;;;0.20;0.20;;;;;;;23.31;19.40;100295.63;5113913;28;20030;-68
2021/12/18 08:14:41;;;;;;;0.30;0.30;;;;;;;23.32;19.28;100292.63;5114059;28;20028;-68
2021/12/18 08:17:06;;;;;;;0.20;0.20;;;;;;;23.33;19.21;100272.44;5114919;28;20023;-68
2021/12/18 08:19:32;;;;;;;0.10;0.10;;;;;;;23.35;19.28;100267.53;5114194;28;20073;-68
2021/12/18 08:21:57;;;;;;;0.10;0.10;;;;;;;23.36;19.14;100263.72;5113729;28;20024;-67
2021/12/18 08:24:22;;;;;;;0.20;0.20;;;;;;;23.38;19.39;100266.16;5113737;28;20026;-68
2021/12/18 08:26:48;;;;;;;0.20;0.20;;;;;;;23.40;19.28;100266.69;5113819;28;20092;-68
2021/12/18 08:29:13;;;;;;;0.10;0.10;;;;;;;23.41;19.08;100262.88;5114003;28;20027;-68
2021/12/18 08:31:39;;;;;;;0.10;0.10;;;;;;;23.41;19.34;100274.59;5123669;28;20030;-68
2021/12/18 08:34:04;;;;;;;0.10;0.10;;;;;;;23.43;19.30;100277.88;5134494;28;20481;-68
2021/12/18 08:36:29;;;;;;;0.10;0.10;;;;;;;23.47;19.24;100271.88;5134545;28;20015;-69
2021/12/18 08:38:55;;;;;;;0.20;0.20;;;;;;;23.45;19.05;100269.41;5134541;28;20453;-69
2021/12/18 08:41:21;;;;;;;0.20;0.20;;;;;;;23.44;19.34;100263.16;5134489;27;20427;-67
2021/12/18 08:43:48;;;;;;;0.10;0.10;;;;;;;23.43;19.24;100263.41;5134724;27;20019;-67
2021/12/18 08:46:14;;;;;;;0.10;0.10;;;;;;;23.43;19.23;100271.59;5135304;27;20445;-69
2021/12/18 08:48:39;;;;;;;0.17;0.17;;;;;;;23.42;19.22;100275.41;5138672;27;20020;-68
2021/12/18 08:51:04;;;;;;;0.20;0.20;;;;;;;23.42;19.12;100270.78;5137418;27;20031;-69
2021/12/18 08:53:30;;;;;;;0.10;0.10;;;;;;;23.39;19.19;100271.34;5138134;27;20464;-69
2021/12/18 08:55:55;;;;;;;0.10;0.10;;;;;;;23.39;19.19;100274.06;5138799;27;20027;-69
2021/12/18 08:58:21;;;;;;;0.20;0.20;;;;;;;23.39;19.35;100260.44;5138611;27;20054;-68
2021/12/18 09:00:46;;;;;;;0.10;0.10;;;;;;;23.38;19.21;100261.50;5138765;27;20034;-69
2021/12/18 09:03:12;;;;;;;0.20;0.20;;;;;;;23.37;19.33;100267.25;5138843;27;20353;-69
2021/12/18 09:05:37;;;;;;;0.10;0.10;;;;;;;23.36;19.20;100258.25;5139782;27;20441;-69
2021/12/18 09:08:03;;;;;;;0.20;0.20;;;;;;;23.35;19.33;100250.34;5140859;27;20500;-69
2021/12/18 09:10:28;;;;;;;0.20;0.20;;;;;;;23.34;19.32;100246.81;5137579;27;20067;-69
2021/12/18 09:12:54;;;;;;;0.10;0.10;;;;;;;23.34;19.37;100249.53;5138158;27;20461;-69
2021/12/18 09:15:19;;;;;;;0.20;0.20;;;;;;;23.32;19.62;100249.00;5138010;27;20476;-69
2021/12/18 09:17:45;;;;;;;0.10;0.10;;;;;;;23.31;19.62;100241.91;5137627;27;20461;-69
2021/12/18 09:20:10;;;;;;;0.20;0.20;;;;;;;23.31;19.57;100241.09;5137528;27;20038;-69
2021/12/18 09:22:36;;;;;;;0.20;0.20;;;;;;;23.32;19.49;100237.25;5137783;27;20023;-69
2021/12/18 09:25:05;;;;;;;0.10;0.10;;;;;;;23.29;19.56;100230.47;5137774;27;20381;-68
2021/12/18 09:27:30;;;;;;;0.13;0.13;;;;;;;23.29;19.70;100226.94;5138176;27;20023;-69
2021/12/18 09:29:56;;;;;;;0.20;0.20;;;;;;;23.30;19.69;100228.53;5137345;27;20358;-69
2021/12/18 09:32:21;;;;;;;0.10;0.10;;;;;;;23.29;19.69;100232.38;5122448;27;20050;-69
2021/12/18 09:34:46;;;;;;;0.15;0.15;;;;;;;23.27;19.70;100223.63;5117040;28;20050;-69
2021/12/18 09:37:12;;;;;;;0.20;0.20;;;;;;;23.27;19.63;100221.75;5116789;28;20475;-68
2021/12/18 09:39:37;;;;;;;0.20;0.20;;;;;;;23.28;19.72;100211.66;5116777;28;20035;-69
2021/12/18 09:42:03;;;;;;;0.17;0.17;;;;;;;23.27;19.76;100210.84;5116915;27;20032;-68
2021/12/18 09:44:30;;;;;;;0.20;0.20;;;;;;;23.24;19.63;100208.66;5116878;27;20080;-69
2021/12/18 09:46:56;;;;;;;0.10;0.10;;;;;;;23.25;19.64;100199.41;5116866;28;20031;-69
2021/12/18 09:49:21;;;;;;;0.20;0.20;;;;;;;23.24;19.68;100182.22;5116725;28;20127;-68
2021/12/18 09:51:47;;;;;;;0.20;0.20;;;;;;;23.25;19.96;100185.78;5116739;28;20024;-68
2021/12/18 09:54:12;;;;;;;0.17;0.17;;;;;;;23.25;19.83;100188.50;5116700;28;20020;-68
2021/12/18 09:56:38;;;;;;;0.20;0.20;;;;;;;23.24;19.99;100187.66;5115241;28;20080;-68
2021/12/18 09:59:04;;;;;;;0.20;0.20;;;;;;;23.24;19.85;100175.94;5116033;28;20032;-68
2021/12/18 10:01:30;;;;;;;0.20;0.20;;;;;;;23.25;19.90;100161.25;5116559;28;20376;-68
2021/12/18 10:03:58;;;;;;;0.20;0.20;;;;;;;23.22;19.99;100159.06;5116460;28;20381;-67
2021/12/18 10:06:35;;;;;;;0.20;0.20;;;;;;;23.22;19.86;100157.13;5116870;28;20084;-67
2021/12/18 10:09:03;;;;;;;0.10;0.10;;;;;;;23.22;20.12;100167.22;5115993;28;20129;-70
2021/12/18 10:11:29;;;;;;;0.15;0.15;;;;;;;23.21;20.10;100154.69;5117520;28;20035;-68
2021/12/18 10:13:56;;;;;;;0.20;0.20;;;;;;;23.22;19.96;100154.41;5118130;28;20077;-68
2021/12/18 10:16:22;;;;;;;0.20;0.20;;;;;;;23.21;19.97;100154.69;5117941;28;20023;-68
2021/12/18 10:18:48;;;;;;;0.10;0.10;;;;;;;23.22;20.19;100139.97;5117852;28;20088;-68
2021/12/18 10:21:15;;;;;;;0.10;0.10;;;;;;;23.21;20.23;100147.31;5117259;28;20505;-68
2021/12/18 10:23:42;;;;;;;0.20;0.20;;;;;;;23.21;20.04;100143.78;5117208;28;20034;-69
2021/12/18 10:26:07;;;;;;;0.10;0.10;;;;;;;23.19;20.13;100137.78;5116937;28;20077;-68
2021/12/18 10:28:45;;;;;;;0.20;0.20;;;;;;;23.25;20.04;100139.44;5098839;28;20032;-68
2021/12/18 10:31:10;;;;;;;0.20;0.20;;;;;;;23.20;20.21;100134.78;5119491;27;20020;-68
2021/12/18 10:33:36;;;;;;;0.10;0.10;;;;;;;23.20;20.25;100137.53;5136146;27;20329;-69
2021/12/18 10:36:02;;;;;;;0.10;0.10;;;;;;;23.20;20.28;100131.25;5135971;27;20038;-68
2021/12/18 10:38:38;;;;;;;0.17;0.17;;;;;;;23.22;20.21;100126.34;5136977;27;20023;-68
2021/12/18 10:41:25;;;;;;;0.20;0.20;;;;;;;23.25;20.02;100125.78;5136277;27;20488;-68
2021/12/18 10:43:54;;;;;;;0.20;0.20;;;;;;;23.20;20.21;100131.25;5135955;27;20047;-68
2021/12/18 10:46:20;;;;;;;0.20;0.20;;;;;;;23.18;20.25;100120.63;5136230;27;20029;-68
2021/12/18 10:49:11;;;;;;;0.20;0.20;;;;;;;23.25;20.12;100117.63;5136338;27;20393;-68
2021/12/18 10:51:37;;;;;;;0.20;0.20;;;;;;;23.19;20.19;100119.53;5136166;27;20066;-68
2021/12/18 10:54:23;;;;;;;0.20;0.20;;;;;;;23.24;20.09;100114.06;5135984;27;20023;-68
2021/12/18 10:56:53;;;;;;;0.13;0.13;;;;;;;23.18;20.23;100112.47;5135593;27;20046;-68
2021/12/18 10:59:32;;;;;;;0.10;0.10;;;;;;;23.21;20.16;100108.34;5136226;27;20106;-69
2021/12/18 11:01:59;;;;;;;0.20;0.20;;;;;;;23.17;20.27;100110.00;5136441;27;20030;-68
2021/12/18 11:04:28;;;;;;;0.10;0.10;;;;;;;23.17;20.44;100099.09;5136182;27;20028;-68
2021/12/18 11:06:57;;;;;;;0.13;0.13;;;;;;;23.17;20.34;100090.94;5136387;27;20034;-68
2021/12/18 11:09:29;;;;;;;0.10;0.10;;;;;;;23.17;20.17;100085.47;5134770;27;20062;-68
2021/12/18 11:14:39;;;;;;;0.13;0.13;;;;;;;23.18;20.35;100054.38;5135446;27;20072;-69
2021/12/18 11:17:07;;;;;;;0.20;0.20;;;;;;;23.15;20.29;100046.78;5135608;27;20365;-69
2021/12/18 11:19:33;;;;;;;0.20;0.20;;;;;;;23.17;20.27;100050.03;5135314;27;20027;-69
2021/12/18 11:22:06;;;;;;;0.10;0.10;;;;;;;23.15;20.28;100033.97;5135451;27;20031;-68
2021/12/18 11:24:44;;;;;;;0.10;0.10;;;;;;;23.18;20.44;100032.56;5135532;27;20095;-69
2021/12/18 11:27:17;;;;;;;0.20;0.20;;;;;;;23.15;20.53;100024.97;5135666;27;20039;-68
2021/12/18 11:29:51;;;;;;;0.10;0.10;;;;;;;23.18;20.29;100024.41;5135373;27;20019;-68
2021/12/18 11:32:21;;;;;;;0.10;0.10;;;;;;;23.16;20.46;100018.41;5122165;27;20038;-68
2021/12/18 11:34:47;;;;;;;0.10;0.10;;;;;;;23.15;20.36;100008.63;5097528;28;20026;-69
2021/12/18 11:37:14;;;;;;;0.20;0.20;;;;;;;23.13;20.26;99999.88;5114453;28;20466;-69
2021/12/18 11:39:40;;;;;;;0.20;0.20;;;;;;;23.12;20.52;99992.81;5114703;28;20035;-68
2021/12/18 11:42:06;;;;;;;0.10;0.10;;;;;;;23.13;20.53;99984.38;5114604;28;20432;-68
2021/12/18 11:44:40;;;;;;;0.20;0.20;;;;;;;23.14;20.30;99979.72;5114308;28;20055;-68
2021/12/18 11:47:25;;;;;;;;;;;;;;;23.39;20.00;99976.84;5114711;28;20028;-67
2021/12/18 11:49:51;;;;;;;0.10;0.10;;;;;;;23.23;20.33;99967.13;5114498;28;19912;-68
2021/12/18 11:52:16;;;;;;;0.10;0.10;;;;;;;23.17;20.21;99957.38;5114481;28;20028;-68
2021/12/18 11:54:43;;;;;;;0.10;0.10;;;;;;;23.14;20.39;99964.19;5114171;28;20469;-68
2021/12/18 11:57:09;;;;;;;0.10;0.10;;;;;;;23.14;20.38;99957.91;5114416;28;20035;-68
2021/12/18 11:59:42;;;;;;;0.20;0.20;;;;;;;23.15;20.40;99959.56;5112885;28;20385;-69
2021/12/18 12:02:11;;;;;;;0.17;0.17;;;;;;;23.13;20.52;99946.22;5114824;28;20160;-68
2021/12/18 12:04:58;;;;;;;0.20;0.20;;;;;;;23.19;20.45;99936.09;5114432;28;20028;-68
2021/12/18 12:07:26;;;;;;;0.20;0.20;;;;;;;23.13;20.35;99934.47;5114246;28;20084;-68
2021/12/18 12:10:20;;;;;;;0.13;0.13;;;;;;;23.17;20.44;99922.72;5113742;28;20039;-68